sensor_id;sensor_type;location;lat;lon;timestamp;P1;durP1;ratioP1;P2;durP2;ratioP2
65033;SDS011;51601;51.356;12.458;2023-03-19T00:01:43;18.73;;;9.25;;
65033;SDS011;51601;51.356;12.458;2023-03-19T00:06:01;18.08;;;9.23;;
65033;SDS011;51601;51.356;12.458;2023-03-19T00:10:20;17.63;;;8.60;;
65033;SDS011;51601;51.356;12.458;2023-03-19T00:14:40;13.38;;;7.47;;
65033;SDS011;51601;51.356;12.458;2023-03-19T00:18:58;21.60;;;10.52;;
65033;SDS011;51601;51.356;12.458;2023-03-19T00:23:16;17.77;;;8.93;;
65033;SDS011;51601;51.356;12.458;2023-03-19T00:27:36;18.67;;;9.70;;
65033;SDS011;51601;51.356;12.458;2023-03-19T00:31:57;17.25;;;8.60;;
65033;SDS011;51601;51.356;12.458;2023-03-19T00:36:17;18.15;;;8.82;;
65033;SDS011;51601;51.356;12.458;2023-03-19T00:40:38;17.33;;;7.60;;
65033;SDS011;51601;51.356;12.458;2023-03-19T00:44:57;18.73;;;9.30;;
65033;SDS011;51601;51.356;12.458;2023-03-19T00:49:17;18.02;;;9.52;;
65033;SDS011;51601;51.356;12.458;2023-03-19T00:53:35;14.10;;;7.30;;
65033;SDS011;51601;51.356;12.458;2023-03-19T00:57:56;19.65;;;10.65;;
65033;SDS011;51601;51.356;12.458;2023-03-19T01:02:16;22.33;;;10.77;;
65033;SDS011;51601;51.356;12.458;2023-03-19T01:06:35;20.03;;;10.73;;
65033;SDS011;51601;51.356;12.458;2023-03-19T01:10:53;24.00;;;12.32;;
65033;SDS011;51601;51.356;12.458;2023-03-19T01:15:11;23.42;;;11.13;;
65033;SDS011;51601;51.356;12.458;2023-03-19T01:19:34;20.25;;;11.95;;
65033;SDS011;51601;51.356;12.458;2023-03-19T01:23:54;21.80;;;12.43;;
65033;SDS011;51601;51.356;12.458;2023-03-19T01:28:15;22.83;;;12.38;;
65033;SDS011;51601;51.356;12.458;2023-03-19T01:32:33;22.30;;;11.07;;
65033;SDS011;51601;51.356;12.458;2023-03-19T01:37:11;17.13;;;8.07;;
65033;SDS011;51601;51.356;12.458;2023-03-19T01:41:30;17.40;;;8.50;;
65033;SDS011;51601;51.356;12.458;2023-03-19T01:46:13;14.80;;;8.30;;
65033;SDS011;51601;51.356;12.458;2023-03-19T01:50:56;14.80;;;7.17;;
65033;SDS011;51601;51.356;12.458;2023-03-19T01:55:34;16.45;;;7.85;;
65033;SDS011;51601;51.356;12.458;2023-03-19T02:00:15;18.77;;;9.20;;
65033;SDS011;51601;51.356;12.458;2023-03-19T02:04:33;13.13;;;6.07;;
65033;SDS011;51601;51.356;12.458;2023-03-19T02:08:54;15.37;;;7.80;;
65033;SDS011;51601;51.356;12.458;2023-03-19T02:13:17;17.25;;;8.05;;
65033;SDS011;51601;51.356;12.458;2023-03-19T02:17:36;18.85;;;9.73;;
65033;SDS011;51601;51.356;12.458;2023-03-19T02:21:54;20.67;;;11.33;;
65033;SDS011;51601;51.356;12.458;2023-03-19T02:26:14;15.38;;;8.77;;
65033;SDS011;51601;51.356;12.458;2023-03-19T02:30:37;15.75;;;8.55;;
65033;SDS011;51601;51.356;12.458;2023-03-19T02:34:59;12.67;;;6.40;;
65033;SDS011;51601;51.356;12.458;2023-03-19T02:39:19;9.63;;;5.45;;
65033;SDS011;51601;51.356;12.458;2023-03-19T02:43:43;14.68;;;6.97;;
65033;SDS011;51601;51.356;12.458;2023-03-19T02:48:03;11.65;;;5.88;;
65033;SDS011;51601;51.356;12.458;2023-03-19T02:52:21;16.20;;;8.10;;
65033;SDS011;51601;51.356;12.458;2023-03-19T02:56:39;18.88;;;10.63;;
65033;SDS011;51601;51.356;12.458;2023-03-19T03:00:58;17.27;;;9.13;;
65033;SDS011;51601;51.356;12.458;2023-03-19T03:05:18;20.60;;;10.30;;
65033;SDS011;51601;51.356;12.458;2023-03-19T03:09:36;20.30;;;10.90;;
65033;SDS011;51601;51.356;12.458;2023-03-19T03:13:54;20.25;;;9.32;;
65033;SDS011;51601;51.356;12.458;2023-03-19T03:18:14;14.93;;;8.23;;
65033;SDS011;51601;51.356;12.458;2023-03-19T03:22:33;14.73;;;7.60;;
65033;SDS011;51601;51.356;12.458;2023-03-19T03:26:51;15.25;;;7.80;;
65033;SDS011;51601;51.356;12.458;2023-03-19T03:31:10;13.32;;;6.75;;
65033;SDS011;51601;51.356;12.458;2023-03-19T03:35:32;15.87;;;8.63;;
65033;SDS011;51601;51.356;12.458;2023-03-19T03:40:10;18.50;;;9.68;;
65033;SDS011;51601;51.356;12.458;2023-03-19T03:44:31;16.08;;;9.40;;
65033;SDS011;51601;51.356;12.458;2023-03-19T03:48:49;14.07;;;7.40;;
65033;SDS011;51601;51.356;12.458;2023-03-19T03:53:16;16.90;;;8.68;;
65033;SDS011;51601;51.356;12.458;2023-03-19T03:57:35;15.90;;;7.97;;
65033;SDS011;51601;51.356;12.458;2023-03-19T04:01:56;18.60;;;7.17;;
65033;SDS011;51601;51.356;12.458;2023-03-19T04:06:18;14.30;;;7.22;;
65033;SDS011;51601;51.356;12.458;2023-03-19T04:10:49;16.35;;;8.85;;
65033;SDS011;51601;51.356;12.458;2023-03-19T04:15:09;13.68;;;6.25;;
65033;SDS011;51601;51.356;12.458;2023-03-19T04:19:36;16.03;;;7.73;;
65033;SDS011;51601;51.356;12.458;2023-03-19T04:23:54;14.77;;;9.07;;
65033;SDS011;51601;51.356;12.458;2023-03-19T04:28:13;19.98;;;9.30;;
65033;SDS011;51601;51.356;12.458;2023-03-19T04:32:39;15.43;;;8.23;;
65033;SDS011;51601;51.356;12.458;2023-03-19T04:37:00;18.38;;;9.00;;
65033;SDS011;51601;51.356;12.458;2023-03-19T04:41:21;14.95;;;7.75;;
65033;SDS011;51601;51.356;12.458;2023-03-19T04:46:08;17.53;;;9.53;;
65033;SDS011;51601;51.356;12.458;2023-03-19T04:50:31;19.60;;;9.98;;
65033;SDS011;51601;51.356;12.458;2023-03-19T04:54:52;18.02;;;9.55;;
65033;SDS011;51601;51.356;12.458;2023-03-19T04:59:14;17.42;;;9.18;;
65033;SDS011;51601;51.356;12.458;2023-03-19T05:03:36;17.23;;;9.73;;
65033;SDS011;51601;51.356;12.458;2023-03-19T05:07:59;19.83;;;9.70;;
65033;SDS011;51601;51.356;12.458;2023-03-19T05:12:20;20.35;;;10.40;;
65033;SDS011;51601;51.356;12.458;2023-03-19T05:16:41;18.50;;;10.43;;
65033;SDS011;51601;51.356;12.458;2023-03-19T05:21:01;21.08;;;10.00;;
65033;SDS011;51601;51.356;12.458;2023-03-19T05:25:24;20.70;;;10.35;;
65033;SDS011;51601;51.356;12.458;2023-03-19T05:29:41;17.97;;;8.07;;
65033;SDS011;51601;51.356;12.458;2023-03-19T05:34:30;16.38;;;8.35;;
65033;SDS011;51601;51.356;12.458;2023-03-19T05:38:50;16.48;;;7.53;;
65033;SDS011;51601;51.356;12.458;2023-03-19T05:43:16;17.55;;;9.68;;
65033;SDS011;51601;51.356;12.458;2023-03-19T05:47:37;19.07;;;8.80;;
65033;SDS011;51601;51.356;12.458;2023-03-19T05:51:58;14.52;;;6.25;;
65033;SDS011;51601;51.356;12.458;2023-03-19T05:56:20;16.80;;;9.27;;
65033;SDS011;51601;51.356;12.458;2023-03-19T06:00:53;19.57;;;10.30;;
65033;SDS011;51601;51.356;12.458;2023-03-19T06:05:14;19.95;;;9.70;;
65033;SDS011;51601;51.356;12.458;2023-03-19T06:09:35;18.52;;;9.80;;
65033;SDS011;51601;51.356;12.458;2023-03-19T06:13:58;19.17;;;9.80;;
65033;SDS011;51601;51.356;12.458;2023-03-19T06:18:26;19.45;;;9.50;;
65033;SDS011;51601;51.356;12.458;2023-03-19T06:22:44;16.13;;;9.15;;
65033;SDS011;51601;51.356;12.458;2023-03-19T06:27:06;18.65;;;8.60;;
65033;SDS011;51601;51.356;12.458;2023-03-19T06:31:31;18.63;;;8.60;;
65033;SDS011;51601;51.356;12.458;2023-03-19T06:36:06;18.45;;;9.25;;
65033;SDS011;51601;51.356;12.458;2023-03-19T06:40:24;19.25;;;9.13;;
65033;SDS011;51601;51.356;12.458;2023-03-19T06:44:45;16.33;;;9.13;;
65033;SDS011;51601;51.356;12.458;2023-03-19T06:49:05;18.92;;;9.95;;
65033;SDS011;51601;51.356;12.458;2023-03-19T06:53:24;18.67;;;10.25;;
65033;SDS011;51601;51.356;12.458;2023-03-19T06:57:42;16.17;;;8.80;;
65033;SDS011;51601;51.356;12.458;2023-03-19T07:02:03;16.52;;;9.57;;
65033;SDS011;51601;51.356;12.458;2023-03-19T07:06:27;16.27;;;9.15;;
65033;SDS011;51601;51.356;12.458;2023-03-19T07:10:46;16.25;;;8.95;;
65033;SDS011;51601;51.356;12.458;2023-03-19T07:15:07;15.47;;;9.10;;
65033;SDS011;51601;51.356;12.458;2023-03-19T07:19:25;15.60;;;9.20;;
65033;SDS011;51601;51.356;12.458;2023-03-19T07:23:44;15.50;;;8.95;;
65033;SDS011;51601;51.356;12.458;2023-03-19T07:28:04;13.97;;;8.23;;
65033;SDS011;51601;51.356;12.458;2023-03-19T07:32:23;15.20;;;8.77;;
65033;SDS011;51601;51.356;12.458;2023-03-19T07:36:40;14.20;;;8.95;;
65033;SDS011;51601;51.356;12.458;2023-03-19T07:41:03;14.80;;;8.97;;
65033;SDS011;51601;51.356;12.458;2023-03-19T07:45:23;14.90;;;8.65;;
65033;SDS011;51601;51.356;12.458;2023-03-19T07:49:41;15.95;;;8.68;;
65033;SDS011;51601;51.356;12.458;2023-03-19T07:53:59;15.07;;;8.50;;
65033;SDS011;51601;51.356;12.458;2023-03-19T07:58:18;14.37;;;8.20;;
65033;SDS011;51601;51.356;12.458;2023-03-19T08:02:38;16.23;;;8.90;;
65033;SDS011;51601;51.356;12.458;2023-03-19T08:06:59;15.65;;;8.77;;
65033;SDS011;51601;51.356;12.458;2023-03-19T08:11:17;14.47;;;8.70;;
65033;SDS011;51601;51.356;12.458;2023-03-19T08:15:36;15.02;;;9.10;;
65033;SDS011;51601;51.356;12.458;2023-03-19T08:19:56;13.30;;;8.40;;
65033;SDS011;51601;51.356;12.458;2023-03-19T08:24:14;16.50;;;8.10;;
65033;SDS011;51601;51.356;12.458;2023-03-19T08:32:52;13.13;;;8.05;;
65033;SDS011;51601;51.356;12.458;2023-03-19T08:37:11;12.00;;;7.30;;
65033;SDS011;51601;51.356;12.458;2023-03-19T08:41:29;13.67;;;7.97;;
65033;SDS011;51601;51.356;12.458;2023-03-19T08:45:48;13.85;;;7.68;;
65033;SDS011;51601;51.356;12.458;2023-03-19T08:50:10;11.45;;;7.20;;
65033;SDS011;51601;51.356;12.458;2023-03-19T08:54:30;13.53;;;7.37;;
65033;SDS011;51601;51.356;12.458;2023-03-19T08:58:48;12.93;;;7.00;;
65033;SDS011;51601;51.356;12.458;2023-03-19T09:03:06;12.68;;;6.82;;
65033;SDS011;51601;51.356;12.458;2023-03-19T09:07:25;11.60;;;6.70;;
65033;SDS011;51601;51.356;12.458;2023-03-19T09:11:45;11.77;;;7.60;;
65033;SDS011;51601;51.356;12.458;2023-03-19T09:16:03;15.15;;;7.38;;
65033;SDS011;51601;51.356;12.458;2023-03-19T09:20:21;15.02;;;7.43;;
65033;SDS011;51601;51.356;12.458;2023-03-19T09:24:41;11.63;;;6.80;;
65033;SDS011;51601;51.356;12.458;2023-03-19T09:29:01;13.35;;;7.15;;
65033;SDS011;51601;51.356;12.458;2023-03-19T09:33:22;13.68;;;7.60;;
65033;SDS011;51601;51.356;12.458;2023-03-19T09:37:40;13.27;;;6.90;;
65033;SDS011;51601;51.356;12.458;2023-03-19T09:42:04;14.50;;;7.53;;
65033;SDS011;51601;51.356;12.458;2023-03-19T09:46:32;13.65;;;7.60;;
65033;SDS011;51601;51.356;12.458;2023-03-19T09:50:59;13.03;;;7.10;;
65033;SDS011;51601;51.356;12.458;2023-03-19T09:55:26;14.27;;;7.30;;
65033;SDS011;51601;51.356;12.458;2023-03-19T09:59:54;11.55;;;6.90;;
65033;SDS011;51601;51.356;12.458;2023-03-19T10:04:18;15.13;;;7.80;;
65033;SDS011;51601;51.356;12.458;2023-03-19T10:09:00;14.30;;;7.17;;
65033;SDS011;51601;51.356;12.458;2023-03-19T10:13:43;14.52;;;8.52;;
65033;SDS011;51601;51.356;12.458;2023-03-19T10:18:14;14.18;;;7.38;;
65033;SDS011;51601;51.356;12.458;2023-03-19T10:22:35;13.27;;;7.47;;
65033;SDS011;51601;51.356;12.458;2023-03-19T10:26:57;13.52;;;7.18;;
65033;SDS011;51601;51.356;12.458;2023-03-19T10:31:26;13.77;;;7.65;;
65033;SDS011;51601;51.356;12.458;2023-03-19T10:35:48;12.63;;;7.27;;
65033;SDS011;51601;51.356;12.458;2023-03-19T10:40:16;13.57;;;7.03;;
65033;SDS011;51601;51.356;12.458;2023-03-19T10:44:40;15.68;;;8.52;;
65033;SDS011;51601;51.356;12.458;2023-03-19T10:49:02;11.23;;;6.60;;
65033;SDS011;51601;51.356;12.458;2023-03-19T10:53:26;12.57;;;6.80;;
65033;SDS011;51601;51.356;12.458;2023-03-19T10:57:48;12.15;;;6.68;;
65033;SDS011;51601;51.356;12.458;2023-03-19T11:02:14;11.80;;;6.43;;
65033;SDS011;51601;51.356;12.458;2023-03-19T11:06:36;11.20;;;5.93;;
65033;SDS011;51601;51.356;12.458;2023-03-19T11:10:55;10.32;;;5.72;;
65033;SDS011;51601;51.356;12.458;2023-03-19T11:15:16;11.82;;;5.25;;
65033;SDS011;51601;51.356;12.458;2023-03-19T11:19:38;9.93;;;4.83;;
65033;SDS011;51601;51.356;12.458;2023-03-19T11:23:58;11.85;;;5.13;;
65033;SDS011;51601;51.356;12.458;2023-03-19T11:28:20;8.77;;;4.80;;
65033;SDS011;51601;51.356;12.458;2023-03-19T11:32:52;10.73;;;5.15;;
65033;SDS011;51601;51.356;12.458;2023-03-19T11:37:27;8.90;;;4.87;;
65033;SDS011;51601;51.356;12.458;2023-03-19T11:41:53;10.10;;;5.35;;
65033;SDS011;51601;51.356;12.458;2023-03-19T11:46:38;11.20;;;5.30;;
65033;SDS011;51601;51.356;12.458;2023-03-19T11:51:03;9.73;;;5.00;;
65033;SDS011;51601;51.356;12.458;2023-03-19T11:55:27;8.90;;;5.00;;
65033;SDS011;51601;51.356;12.458;2023-03-19T12:00:00;9.13;;;5.25;;
65033;SDS011;51601;51.356;12.458;2023-03-19T12:04:36;9.10;;;4.80;;
65033;SDS011;51601;51.356;12.458;2023-03-19T12:09:08;8.55;;;4.47;;
65033;SDS011;51601;51.356;12.458;2023-03-19T12:13:40;8.73;;;4.25;;
65033;SDS011;51601;51.356;12.458;2023-03-19T12:18:09;10.73;;;4.50;;
65033;SDS011;51601;51.356;12.458;2023-03-19T12:22:43;8.33;;;4.00;;
65033;SDS011;51601;51.356;12.458;2023-03-19T12:27:16;8.10;;;4.40;;
65033;SDS011;51601;51.356;12.458;2023-03-19T12:31:45;10.35;;;4.93;;
65033;SDS011;51601;51.356;12.458;2023-03-19T12:36:16;10.17;;;4.60;;
65033;SDS011;51601;51.356;12.458;2023-03-19T12:40:42;8.73;;;4.57;;
65033;SDS011;51601;51.356;12.458;2023-03-19T12:45:11;8.00;;;3.70;;
65033;SDS011;51601;51.356;12.458;2023-03-19T12:49:41;9.07;;;3.53;;
65033;SDS011;51601;51.356;12.458;2023-03-19T12:54:05;8.65;;;3.47;;
65033;SDS011;51601;51.356;12.458;2023-03-19T12:58:32;6.90;;;2.80;;
65033;SDS011;51601;51.356;12.458;2023-03-19T13:02:56;7.47;;;3.15;;
65033;SDS011;51601;51.356;12.458;2023-03-19T13:07:25;7.77;;;2.90;;
65033;SDS011;51601;51.356;12.458;2023-03-19T13:11:51;6.90;;;3.05;;
65033;SDS011;51601;51.356;12.458;2023-03-19T13:16:22;5.63;;;2.30;;
65033;SDS011;51601;51.356;12.458;2023-03-19T13:20:55;43.87;;;26.87;;
65033;SDS011;51601;51.356;12.458;2023-03-19T13:25:30;33.33;;;30.27;;
65033;SDS011;51601;51.356;12.458;2023-03-19T13:29:54;107.47;;;98.45;;
65033;SDS011;51601;51.356;12.458;2023-03-19T13:34:30;73.37;;;42.17;;
65033;SDS011;51601;51.356;12.458;2023-03-19T13:38:49;6.90;;;3.00;;
65033;SDS011;51601;51.356;12.458;2023-03-19T13:48:09;6.68;;;2.60;;
65033;SDS011;51601;51.356;12.458;2023-03-19T13:52:47;6.23;;;2.40;;
65033;SDS011;51601;51.356;12.458;2023-03-19T13:57:16;8.55;;;3.20;;
65033;SDS011;51601;51.356;12.458;2023-03-19T14:01:37;8.98;;;3.42;;
65033;SDS011;51601;51.356;12.458;2023-03-19T14:06:00;6.83;;;3.20;;
65033;SDS011;51601;51.356;12.458;2023-03-19T14:10:21;7.25;;;3.05;;
65033;SDS011;51601;51.356;12.458;2023-03-19T14:14:44;7.55;;;2.90;;
65033;SDS011;51601;51.356;12.458;2023-03-19T14:19:08;6.37;;;3.00;;
65033;SDS011;51601;51.356;12.458;2023-03-19T14:23:28;8.77;;;3.53;;
65033;SDS011;51601;51.356;12.458;2023-03-19T14:28:00;6.85;;;3.08;;
65033;SDS011;51601;51.356;12.458;2023-03-19T14:32:27;7.80;;;3.00;;
65033;SDS011;51601;51.356;12.458;2023-03-19T14:36:51;22.30;;;13.63;;
65033;SDS011;51601;51.356;12.458;2023-03-19T14:41:15;104.13;;;84.35;;
65033;SDS011;51601;51.356;12.458;2023-03-19T14:45:42;8.55;;;2.97;;
65033;SDS011;51601;51.356;12.458;2023-03-19T14:50:19;7.83;;;3.10;;
65033;SDS011;51601;51.356;12.458;2023-03-19T14:54:58;7.63;;;3.25;;
65033;SDS011;51601;51.356;12.458;2023-03-19T14:59:18;7.35;;;3.30;;
65033;SDS011;51601;51.356;12.458;2023-03-19T15:03:38;6.70;;;2.77;;
65033;SDS011;51601;51.356;12.458;2023-03-19T15:07:59;118.43;;;74.95;;
65033;SDS011;51601;51.356;12.458;2023-03-19T15:12:22;292.88;;;203.48;;
65033;SDS011;51601;51.356;12.458;2023-03-19T15:17:00;412.00;;;282.98;;
65033;SDS011;51601;51.356;12.458;2023-03-19T15:21:24;441.03;;;264.93;;
65033;SDS011;51601;51.356;12.458;2023-03-19T15:25:44;708.88;;;545.60;;
65033;SDS011;51601;51.356;12.458;2023-03-19T15:30:18;270.60;;;225.85;;
65033;SDS011;51601;51.356;12.458;2023-03-19T15:34:38;291.07;;;210.20;;
65033;SDS011;51601;51.356;12.458;2023-03-19T15:38:58;7.35;;;3.15;;
65033;SDS011;51601;51.356;12.458;2023-03-19T15:43:20;9.00;;;3.13;;
65033;SDS011;51601;51.356;12.458;2023-03-19T15:47:39;22.33;;;14.77;;
65033;SDS011;51601;51.356;12.458;2023-03-19T15:52:03;57.25;;;50.97;;
65033;SDS011;51601;51.356;12.458;2023-03-19T15:56:25;337.27;;;303.42;;
65033;SDS011;51601;51.356;12.458;2023-03-19T16:00:45;261.50;;;230.30;;
65033;SDS011;51601;51.356;12.458;2023-03-19T16:05:03;432.67;;;387.60;;
65033;SDS011;51601;51.356;12.458;2023-03-19T16:09:36;701.80;;;641.47;;
65033;SDS011;51601;51.356;12.458;2023-03-19T16:13:56;930.83;;;851.03;;
65033;SDS011;51601;51.356;12.458;2023-03-19T16:18:22;563.77;;;508.27;;
65033;SDS011;51601;51.356;12.458;2023-03-19T16:22:52;7.45;;;3.50;;
65033;SDS011;51601;51.356;12.458;2023-03-19T16:27:14;8.40;;;3.45;;
65033;SDS011;51601;51.356;12.458;2023-03-19T16:31:41;8.40;;;3.40;;
65033;SDS011;51601;51.356;12.458;2023-03-19T16:36:02;8.43;;;3.40;;
65033;SDS011;51601;51.356;12.458;2023-03-19T16:45:01;8.75;;;3.95;;
65033;SDS011;51601;51.356;12.458;2023-03-19T16:49:34;8.57;;;3.20;;
65033;SDS011;51601;51.356;12.458;2023-03-19T16:53:54;8.50;;;3.60;;
65033;SDS011;51601;51.356;12.458;2023-03-19T16:58:13;8.02;;;3.38;;
65033;SDS011;51601;51.356;12.458;2023-03-19T17:02:33;7.50;;;3.47;;
65033;SDS011;51601;51.356;12.458;2023-03-19T17:06:52;8.13;;;4.13;;
65033;SDS011;51601;51.356;12.458;2023-03-19T17:11:14;7.60;;;3.72;;
65033;SDS011;51601;51.356;12.458;2023-03-19T17:15:39;9.67;;;3.70;;
65033;SDS011;51601;51.356;12.458;2023-03-19T17:19:58;9.43;;;3.38;;
65033;SDS011;51601;51.356;12.458;2023-03-19T17:24:21;21.45;;;15.20;;
65033;SDS011;51601;51.356;12.458;2023-03-19T17:28:40;50.03;;;18.75;;
65033;SDS011;51601;51.356;12.458;2023-03-19T17:32:58;7.10;;;3.40;;
65033;SDS011;51601;51.356;12.458;2023-03-19T17:37:16;12.57;;;7.50;;
65033;SDS011;51601;51.356;12.458;2023-03-19T17:41:35;33.10;;;9.93;;
65033;SDS011;51601;51.356;12.458;2023-03-19T17:45:55;29.37;;;11.40;;
65033;SDS011;51601;51.356;12.458;2023-03-19T17:50:14;60.42;;;43.58;;
65033;SDS011;51601;51.356;12.458;2023-03-19T17:54:34;82.72;;;53.55;;
65033;SDS011;51601;51.356;12.458;2023-03-19T17:58:54;180.43;;;121.10;;
65033;SDS011;51601;51.356;12.458;2023-03-19T18:03:14;126.35;;;82.93;;
65033;SDS011;51601;51.356;12.458;2023-03-19T18:07:35;249.55;;;151.23;;
65033;SDS011;51601;51.356;12.458;2023-03-19T18:11:54;86.38;;;54.65;;
65033;SDS011;51601;51.356;12.458;2023-03-19T18:16:15;8.17;;;3.40;;
65033;SDS011;51601;51.356;12.458;2023-03-19T18:20:38;7.95;;;3.50;;
65033;SDS011;51601;51.356;12.458;2023-03-19T18:24:59;8.38;;;3.60;;
65033;SDS011;51601;51.356;12.458;2023-03-19T18:29:17;143.90;;;82.37;;
65033;SDS011;51601;51.356;12.458;2023-03-19T18:33:37;327.80;;;173.13;;
65033;SDS011;51601;51.356;12.458;2023-03-19T18:37:56;325.58;;;159.25;;
65033;SDS011;51601;51.356;12.458;2023-03-19T18:42:15;175.43;;;92.67;;
65033;SDS011;51601;51.356;12.458;2023-03-19T18:46:33;230.65;;;110.18;;
65033;SDS011;51601;51.356;12.458;2023-03-19T18:50:55;138.15;;;71.63;;
65033;SDS011;51601;51.356;12.458;2023-03-19T18:55:15;180.45;;;85.93;;
65033;SDS011;51601;51.356;12.458;2023-03-19T18:59:33;425.13;;;203.80;;
65033;SDS011;51601;51.356;12.458;2023-03-19T19:03:51;524.15;;;290.63;;
65033;SDS011;51601;51.356;12.458;2023-03-19T19:08:14;430.15;;;233.55;;
65033;SDS011;51601;51.356;12.458;2023-03-19T19:12:33;547.30;;;277.43;;
65033;SDS011;51601;51.356;12.458;2023-03-19T19:16:54;525.22;;;270.35;;
65033;SDS011;51601;51.356;12.458;2023-03-19T19:21:12;534.40;;;275.20;;
65033;SDS011;51601;51.356;12.458;2023-03-19T19:25:32;580.37;;;326.40;;
65033;SDS011;51601;51.356;12.458;2023-03-19T19:29:51;541.42;;;291.83;;
65033;SDS011;51601;51.356;12.458;2023-03-19T19:34:10;570.58;;;307.55;;
65033;SDS011;51601;51.356;12.458;2023-03-19T19:38:31;408.95;;;207.75;;
65033;SDS011;51601;51.356;12.458;2023-03-19T19:42:50;486.50;;;251.33;;
65033;SDS011;51601;51.356;12.458;2023-03-19T19:47:11;578.53;;;312.15;;
65033;SDS011;51601;51.356;12.458;2023-03-19T19:51:31;543.65;;;284.42;;
65033;SDS011;51601;51.356;12.458;2023-03-19T19:55:49;571.37;;;289.50;;
65033;SDS011;51601;51.356;12.458;2023-03-19T20:00:14;623.35;;;326.90;;
65033;SDS011;51601;51.356;12.458;2023-03-19T20:04:37;709.03;;;434.23;;
65033;SDS011;51601;51.356;12.458;2023-03-19T20:08:55;661.70;;;396.87;;
65033;SDS011;51601;51.356;12.458;2023-03-19T20:13:17;716.83;;;459.48;;
65033;SDS011;51601;51.356;12.458;2023-03-19T20:17:42;766.33;;;531.88;;
65033;SDS011;51601;51.356;12.458;2023-03-19T20:22:02;710.28;;;500.85;;
65033;SDS011;51601;51.356;12.458;2023-03-19T20:26:21;661.40;;;422.13;;
65033;SDS011;51601;51.356;12.458;2023-03-19T20:30:41;711.40;;;473.58;;
65033;SDS011;51601;51.356;12.458;2023-03-19T20:35:01;492.10;;;307.05;;
65033;SDS011;51601;51.356;12.458;2023-03-19T20:39:20;514.07;;;295.77;;
65033;SDS011;51601;51.356;12.458;2023-03-19T20:43:38;696.03;;;479.60;;
65033;SDS011;51601;51.356;12.458;2023-03-19T20:47:56;754.72;;;542.85;;
65033;SDS011;51601;51.356;12.458;2023-03-19T20:52:16;810.67;;;657.93;;
65033;SDS011;51601;51.356;12.458;2023-03-19T20:56:35;823.50;;;731.80;;
65033;SDS011;51601;51.356;12.458;2023-03-19T21:01:03;911.33;;;816.05;;
65033;SDS011;51601;51.356;12.458;2023-03-19T21:05:21;983.78;;;895.47;;
65033;SDS011;51601;51.356;12.458;2023-03-19T21:09:43;994.77;;;911.63;;
65033;SDS011;51601;51.356;12.458;2023-03-19T21:14:03;946.17;;;875.47;;
65033;SDS011;51601;51.356;12.458;2023-03-19T21:18:24;931.90;;;859.53;;
65033;SDS011;51601;51.356;12.458;2023-03-19T21:22:42;26.33;;;15.40;;
65033;SDS011;51601;51.356;12.458;2023-03-19T21:27:05;12.52;;;6.05;;
65033;SDS011;51601;51.356;12.458;2023-03-19T21:31:24;227.23;;;201.75;;
65033;SDS011;51601;51.356;12.458;2023-03-19T21:35:43;799.20;;;728.40;;
65033;SDS011;51601;51.356;12.458;2023-03-19T21:40:01;40.60;;;10.90;;
65033;SDS011;51601;51.356;12.458;2023-03-19T21:44:20;327.17;;;285.60;;
65033;SDS011;51601;51.356;12.458;2023-03-19T21:48:40;231.27;;;204.65;;
65033;SDS011;51601;51.356;12.458;2023-03-19T21:52:58;9.97;;;5.10;;
65033;SDS011;51601;51.356;12.458;2023-03-19T21:57:16;285.85;;;184.77;;
65033;SDS011;51601;51.356;12.458;2023-03-19T22:01:35;529.97;;;378.88;;
65033;SDS011;51601;51.356;12.458;2023-03-19T22:05:55;484.97;;;283.67;;
65033;SDS011;51601;51.356;12.458;2023-03-19T22:10:13;464.00;;;295.50;;
65033;SDS011;51601;51.356;12.458;2023-03-19T22:14:34;576.15;;;385.85;;
65033;SDS011;51601;51.356;12.458;2023-03-19T22:18:54;539.40;;;318.77;;
65033;SDS011;51601;51.356;12.458;2023-03-19T22:23:13;547.97;;;318.52;;
65033;SDS011;51601;51.356;12.458;2023-03-19T22:27:31;562.03;;;328.98;;
65033;SDS011;51601;51.356;12.458;2023-03-19T22:31:50;554.67;;;322.90;;
65033;SDS011;51601;51.356;12.458;2023-03-19T22:36:12;568.13;;;327.53;;
65033;SDS011;51601;51.356;12.458;2023-03-19T22:40:32;565.70;;;327.45;;
65033;SDS011;51601;51.356;12.458;2023-03-19T22:44:50;548.53;;;315.88;;
65033;SDS011;51601;51.356;12.458;2023-03-19T22:49:11;555.47;;;322.83;;
65033;SDS011;51601;51.356;12.458;2023-03-19T22:53:34;573.80;;;340.33;;
65033;SDS011;51601;51.356;12.458;2023-03-19T22:57:53;607.22;;;360.10;;
65033;SDS011;51601;51.356;12.458;2023-03-19T23:02:12;607.03;;;361.10;;
65033;SDS011;51601;51.356;12.458;2023-03-19T23:06:32;672.17;;;417.83;;
65033;SDS011;51601;51.356;12.458;2023-03-19T23:10:52;634.08;;;381.23;;
65033;SDS011;51601;51.356;12.458;2023-03-19T23:15:12;612.03;;;363.85;;
65033;SDS011;51601;51.356;12.458;2023-03-19T23:19:30;639.60;;;392.90;;
65033;SDS011;51601;51.356;12.458;2023-03-19T23:23:51;588.92;;;344.52;;
65033;SDS011;51601;51.356;12.458;2023-03-19T23:28:15;619.47;;;363.95;;
65033;SDS011;51601;51.356;12.458;2023-03-19T23:32:36;764.07;;;567.17;;
65033;SDS011;51601;51.356;12.458;2023-03-19T23:36:54;715.92;;;483.92;;
65033;SDS011;51601;51.356;12.458;2023-03-19T23:41:16;666.15;;;429.95;;
65033;SDS011;51601;51.356;12.458;2023-03-19T23:45:41;648.47;;;408.83;;
65033;SDS011;51601;51.356;12.458;2023-03-19T23:50:01;657.47;;;415.75;;
65033;SDS011;51601;51.356;12.458;2023-03-19T23:54:25;634.85;;;386.70;;
65033;SDS011;51601;51.356;12.458;2023-03-19T23:58:46;639.65;;;395.20;;
